Time;durP1;ratioP1;P1;durP2;ratioP2;P2;SDS_P1;SDS_P2;PMS_P1;PMS_P2;Temp;Humidity;BMP_temperature;BMP_pressure;BME280_temperature;BME280_humidity;BME280_pressure;Samples;Min_cycle;Max_cycle;Signal;HPM_P1;HPM_P2
2023/12/30 00:00:10;;;;;;;;;;;;;;;16.48;60.13;99175.47;2078882;28;19964;-62
2023/12/30 00:01:12;;;;;;;;;;;;;;;16.46;60.29;99174.78;2081493;28;19929;-62
2023/12/30 00:02:14;;;;;;;;;;;;;;;16.46;60.20;99178.28;2080173;28;19944;-62
2023/12/30 00:03:14;;;;;;;;;;;;;;;16.46;60.20;99175.63;2082532;28;20407;-62
2023/12/30 00:04:16;;;;;;;;;;;;;;;16.47;60.18;99176.47;2080294;28;20028;-62
2023/12/30 00:05:16;;;;;;;;;;;;;;;16.46;60.14;99169.44;2079837;28;19943;-62
2023/12/30 00:06:18;;;;;;;;;;;;;;;16.45;60.26;99167.78;2077721;28;19987;-62
2023/12/30 00:07:19;;;;;;;;;;;;;;;16.46;60.01;99169.44;2079816;28;19932;-62
2023/12/30 00:08:21;;;;;;;;;;;;;;;16.46;60.12;99166.75;2079145;28;20595;-63
2023/12/30 00:09:21;;;;;;;;;;;;;;;16.44;60.13;99163.44;2085918;28;20679;-62
2023/12/30 00:10:23;;;;;;;;;;;;;;;16.43;60.16;99162.59;2086871;28;19964;-62
2023/12/30 00:11:23;;;;;;;;;;;;;;;16.45;60.19;99157.06;2088221;28;20011;-61
2023/12/30 00:12:25;;;;;;;;;;;;;;;16.44;60.19;99158.09;2089969;28;20072;-63
2023/12/30 00:13:25;;;;;;;;;;;;;;;16.44;60.03;99156.25;2090066;28;20361;-63
2023/12/30 00:14:27;;;;;;;;;;;;;;;16.43;60.11;99161.75;2087495;28;19929;-62
2023/12/30 00:15:28;;;;;;;;;;;;;;;16.41;60.20;99158.41;2086214;28;19935;-62
2023/12/30 00:16:31;;;;;;;;;;;;;;;16.40;60.19;99152.25;2091473;28;19960;-62
2023/12/30 00:17:31;;;;;;;;;;;;;;;16.42;60.13;99144.03;2087362;28;19925;-62
2023/12/30 00:18:33;;;;;;;;;;;;;;;16.41;60.17;99150.38;2089892;28;20031;-62
2023/12/30 00:19:36;;;;;;;;;;;;;;;16.40;60.21;99152.25;2089084;28;19936;-62
2023/12/30 00:20:37;;;;;;;;;;;;;;;16.41;60.16;99147.72;2087403;28;20458;-61
2023/12/30 00:21:38;;;;;;;;;;;;;;;16.40;60.27;99149.56;2086960;28;19972;-63
2023/12/30 00:22:40;;;;;;;;;;;;;;;16.40;60.09;99143.38;2088917;28;20380;-62
2023/12/30 00:23:42;;;;;;;;;;;;;;;16.38;60.14;99142.72;2090067;28;19932;-63
2023/12/30 00:24:44;;;;;;;;;;;;;;;16.36;60.25;99142.06;2085158;28;19932;-63
2023/12/30 00:25:44;;;;;;;;;;;;;;;16.33;60.24;99145.09;2087783;28;20307;-63
2023/12/30 00:26:46;;;;;;;;;;;;;;;16.34;60.24;99150.28;2084969;28;20020;-63
2023/12/30 00:27:49;;;;;;;;;;;;;;;16.32;60.38;99144.25;2087392;28;20081;-62
2023/12/30 00:28:51;;;;;;;;;;;;;;;16.34;60.32;99144.09;2084610;28;19962;-61
2023/12/30 00:29:51;;;;;;;;;;;;;;;16.33;60.23;99140.59;2073075;28;19928;-62
2023/12/30 00:30:53;;;;;;;;;;;;;;;16.33;60.28;99139.75;2085054;28;20043;-61
2023/12/30 00:31:55;;;;;;;;;;;;;;;16.33;60.18;99140.59;2083415;28;19929;-61
2023/12/30 00:32:56;;;;;;;;;;;;;;;16.34;60.30;99136.06;2088755;28;19943;-62
2023/12/30 00:33:58;;;;;;;;;;;;;;;16.34;60.30;99142.25;2082154;28;19928;-62
2023/12/30 00:34:59;;;;;;;;;;;;;;;16.35;60.16;99143.91;2085119;28;19958;-62
2023/12/30 00:36:03;;;;;;;;;;;;;;;16.31;60.25;99145.28;2086365;28;19944;-61
2023/12/30 00:37:05;;;;;;;;;;;;;;;16.31;60.28;99145.28;2082654;28;19974;-62
2023/12/30 00:38:05;;;;;;;;;;;;;;;16.28;60.29;99148.31;2089777;28;19928;-62
2023/12/30 00:39:07;;;;;;;;;;;;;;;16.29;60.31;99150.78;2088139;28;19971;-63
2023/12/30 00:40:08;;;;;;;;;;;;;;;16.29;60.23;99149.97;2091078;28;19935;-61
2023/12/30 00:41:10;;;;;;;;;;;;;;;16.27;60.39;99150.16;2085320;28;19925;-62
2023/12/30 00:42:10;;;;;;;;;;;;;;;16.25;60.32;99144.13;2089956;28;19932;-62
2023/12/30 00:43:12;;;;;;;;;;;;;;;16.29;60.31;99149.97;2088002;28;19964;-62
2023/12/30 00:44:12;;;;;;;;;;;;;;;16.27;60.26;99152.00;2088701;28;19931;-61
2023/12/30 00:45:14;;;;;;;;;;;;;;;16.28;60.30;99159.00;2087499;28;20384;-62
2023/12/30 00:46:15;;;;;;;;;;;;;;;16.24;60.45;99158.53;2090617;28;19932;-63
2023/12/30 00:47:18;;;;;;;;;;;;;;;16.25;60.34;99159.38;2086572;28;21195;-62
2023/12/30 00:48:18;;;;;;;;;;;;;;;16.23;60.45;99156.84;2086929;28;19925;-63
2023/12/30 00:49:20;;;;;;;;;;;;;;;16.22;60.40;99154.38;2085459;28;19968;-62
2023/12/30 00:50:20;;;;;;;;;;;;;;;16.21;60.45;99166.88;2086405;28;19925;-62
2023/12/30 00:51:21;;;;;;;;;;;;;;;16.21;60.51;99164.22;2087216;28;19960;-63
2023/12/30 00:52:23;;;;;;;;;;;;;;;16.19;60.56;99160.91;2086513;28;19932;-62
2023/12/30 00:53:23;;;;;;;;;;;;;;;16.18;60.47;99159.22;2087501;28;20383;-63
2023/12/30 00:54:25;;;;;;;;;;;;;;;16.19;60.51;99160.06;2088778;28;20011;-61
2023/12/30 00:55:25;;;;;;;;;;;;;;;16.20;60.40;99159.06;2086090;28;19945;-62
2023/12/30 00:56:27;;;;;;;;;;;;;;;16.21;60.39;99158.03;2088230;28;19948;-61
2023/12/30 00:57:27;;;;;;;;;;;;;;;16.21;60.39;99161.53;2086251;28;19936;-63
2023/12/30 00:58:28;;;;;;;;;;;;;;;16.19;60.37;99160.06;2087618;28;19982;-62
2023/12/30 00:59:30;;;;;;;;;;;;;;;16.19;60.39;99160.06;2086349;28;20495;-61
2023/12/30 01:00:31;;;;;;;;;;;;;;;16.21;60.44;99163.38;2088539;28;21637;-63
2023/12/30 01:01:32;;;;;;;;;;;;;;;16.19;60.46;99162.75;2088098;28;20036;-63
2023/12/30 01:02:34;;;;;;;;;;;;;;;16.19;60.43;99165.44;2086821;28;20585;-63
2023/12/30 01:03:36;;;;;;;;;;;;;;;16.17;60.43;99162.91;2087404;28;19929;-63
2023/12/30 01:04:36;;;;;;;;;;;;;;;16.15;60.44;99161.41;2087279;28;19929;-63
2023/12/30 01:05:38;;;;;;;;;;;;;;;16.14;60.49;99157.91;2088740;28;19975;-63
2023/12/30 01:06:39;;;;;;;;;;;;;;;16.16;60.45;99163.06;2083305;28;19925;-61
2023/12/30 01:07:40;;;;;;;;;;;;;;;16.15;60.38;99151.53;2087494;28;20035;-63
2023/12/30 01:08:41;;;;;;;;;;;;;;;16.14;60.46;99151.72;2090108;28;20844;-61
2023/12/30 01:09:42;;;;;;;;;;;;;;;16.15;60.43;99154.22;2087876;28;20003;-62
2023/12/30 01:10:43;;;;;;;;;;;;;;;16.13;60.49;99144.69;2087344;28;19929;-62
2023/12/30 01:11:44;;;;;;;;;;;;;;;16.11;60.57;99155.59;2087298;28;20015;-61
2023/12/30 01:12:45;;;;;;;;;;;;;;;16.09;60.50;99149.56;2084603;28;20287;-61
2023/12/30 01:13:47;;;;;;;;;;;;;;;16.08;60.63;99142.56;2090779;28;20027;-63
2023/12/30 01:14:47;;;;;;;;;;;;;;;16.08;60.59;99151.41;2084150;28;19936;-62
2023/12/30 01:15:49;;;;;;;;;;;;;;;16.08;60.60;99151.41;2088926;28;19956;-63
2023/12/30 01:16:49;;;;;;;;;;;;;;;16.09;60.51;99144.22;2087610;28;20173;-62
2023/12/30 01:17:53;;;;;;;;;;;;;;;16.09;60.49;99154.91;2087993;28;19967;-61
2023/12/30 01:18:54;;;;;;;;;;;;;;;16.07;60.59;99146.22;2087352;28;19929;-61
2023/12/30 01:19:54;;;;;;;;;;;;;;;16.06;60.55;99150.75;2088498;28;19931;-61
2023/12/30 01:20:56;;;;;;;;;;;;;;;16.05;60.53;99154.44;2084075;28;19935;-62
2023/12/30 01:21:56;;;;;;;;;;;;;;;16.07;60.49;99147.09;2091546;28;20307;-62
2023/12/30 01:22:57;;;;;;;;;;;;;;;16.09;60.46;99144.22;2086293;28;19967;-62
2023/12/30 01:23:59;;;;;;;;;;;;;;;16.06;60.48;99150.75;2090862;28;20521;-60
2023/12/30 01:24:59;;;;;;;;;;;;;;;16.05;60.56;99148.25;2089199;28;19928;-61
2023/12/30 01:26:01;;;;;;;;;;;;;;;16.04;60.67;99149.25;2086240;28;19968;-63
2023/12/30 01:27:02;;;;;;;;;;;;;;;16.04;60.60;99146.56;2088740;28;19932;-62
2023/12/30 01:28:03;;;;;;;;;;;;;;;16.05;60.50;99153.63;2088987;28;20437;-62
2023/12/30 01:29:04;;;;;;;;;;;;;;;16.03;60.58;99156.44;2086110;28;20435;-62
2023/12/30 01:30:05;;;;;;;;;;;;;;;16.02;60.62;99154.78;2082392;28;20024;-61
2023/12/30 01:31:07;;;;;;;;;;;;;;;16.02;60.61;99149.44;2087864;28;19929;-61
2023/12/30 01:32:07;;;;;;;;;;;;;;;16.02;60.58;99160.16;2090292;28;20316;-61
2023/12/30 01:33:10;;;;;;;;;;;;;;;16.02;60.57;99160.16;2089086;28;19979;-62
2023/12/30 01:34:12;;;;;;;;;;;;;;;15.99;60.54;99160.50;2089377;28;19932;-62
2023/12/30 01:35:14;;;;;;;;;;;;;;;16.01;60.57;99158.47;2087106;28;19929;-62
2023/12/30 01:36:16;;;;;;;;;;;;;;;16.02;60.51;99154.78;2090616;28;21723;-62
2023/12/30 01:37:16;;;;;;;;;;;;;;;15.99;60.61;99151.59;2086787;28;19947;-61
2023/12/30 01:38:17;;;;;;;;;;;;;;;15.98;60.62;99157.97;2090551;28;20011;-63
2023/12/30 01:39:18;;;;;;;;;;;;;;;16.01;60.50;99155.78;2086026;28;19964;-61
2023/12/30 01:40:19;;;;;;;;;;;;;;;16.01;60.54;99154.94;2084453;28;19932;-61
2023/12/30 01:41:21;;;;;;;;;;;;;;;15.98;60.53;99152.63;2092801;28;20403;-63
2023/12/30 01:42:22;;;;;;;;;;;;;;;15.99;60.62;99151.59;2090556;28;19940;-63
2023/12/30 01:43:24;;;;;;;;;;;;;;;15.97;60.54;99151.81;2089887;28;20728;-62
2023/12/30 01:44:25;;;;;;;;;;;;;;;15.98;60.62;99153.47;2083945;28;19964;-61
2023/12/30 01:45:25;;;;;;;;;;;;;;;15.98;60.58;99157.97;2087376;28;19929;-62
2023/12/30 01:46:27;;;;;;;;;;;;;;;15.98;60.52;99158.81;2084622;28;19932;-63
2023/12/30 01:47:28;;;;;;;;;;;;;;;15.99;60.47;99154.28;2086681;28;19929;-62
2023/12/30 01:48:44;;;;;;;;;;;;;;;15.99;60.51;99155.16;2090007;28;19924;-62
2023/12/30 01:49:46;;;;;;;;;;;;;;;15.98;60.46;99164.16;2087636;28;19936;-61
2023/12/30 01:50:49;;;;;;;;;;;;;;;15.96;60.66;99151.97;2087837;28;19932;-62
2023/12/30 01:51:50;;;;;;;;;;;;;;;15.96;60.59;99160.81;2091067;28;19933;-62
2023/12/30 01:52:52;;;;;;;;;;;;;;;15.97;60.61;99157.16;2088824;28;20631;-63
2023/12/30 01:53:53;;;;;;;;;;;;;;;15.96;60.55;99163.50;2092537;28;20307;-65
2023/12/30 01:54:55;;;;;;;;;;;;;;;15.97;60.55;99162.50;2089338;28;19984;-62
2023/12/30 01:55:56;;;;;;;;;;;;;;;15.95;60.59;99161.84;2088160;28;19982;-62
2023/12/30 01:56:58;;;;;;;;;;;;;;;15.96;60.56;99157.31;2085811;28;19955;-62
2023/12/30 01:57:59;;;;;;;;;;;;;;;15.96;60.71;99152.78;2086853;28;19925;-63
2023/12/30 01:59:01;;;;;;;;;;;;;;;15.95;60.61;99159.16;2085686;28;20011;-63
2023/12/30 02:00:03;;;;;;;;;;;;;;;15.94;60.43;99151.31;2085348;28;19929;-61
2023/12/30 02:01:06;;;;;;;;;;;;;;;15.97;60.52;99153.66;2085443;28;19929;-63
2023/12/30 02:02:07;;;;;;;;;;;;;;;15.93;60.62;99150.47;2087559;28;19983;-63
2023/12/30 02:03:08;;;;;;;;;;;;;;;15.94;60.48;99152.16;2089760;28;19925;-63
2023/12/30 02:04:10;;;;;;;;;;;;;;;15.95;60.47;99151.13;2088859;28;19972;-60
2023/12/30 02:05:12;;;;;;;;;;;;;;;15.94;60.49;99154.00;2087265;28;19979;-63
2023/12/30 02:06:13;;;;;;;;;;;;;;;15.94;60.39;99151.31;2086851;28;19964;-63
2023/12/30 02:07:14;;;;;;;;;;;;;;;15.93;60.55;99157.66;2089689;28;19928;-62
2023/12/30 02:08:16;;;;;;;;;;;;;;;15.93;60.56;99153.13;2088542;28;20024;-63
2023/12/30 02:09:16;;;;;;;;;;;;;;;15.92;60.50;99151.47;2084187;28;19932;-62
2023/12/30 02:10:18;;;;;;;;;;;;;;;15.94;60.60;99159.34;2088357;28;19968;-62
2023/12/30 02:11:19;;;;;;;;;;;;;;;15.94;60.42;99151.31;2085813;28;19979;-61
2023/12/30 02:12:19;;;;;;;;;;;;;;;15.92;60.44;99153.34;2086781;28;19975;-62
2023/12/30 02:13:21;;;;;;;;;;;;;;;15.93;60.49;99153.13;2085109;28;19925;-61
2023/12/30 02:14:22;;;;;;;;;;;;;;;15.95;60.37;99150.31;2084932;28;19933;-61
2023/12/30 02:15:25;;;;;;;;;;;;;;;15.93;60.57;99149.63;2085800;28;20399;-63
2023/12/30 02:16:26;;;;;;;;;;;;;;;15.94;60.38;99143.31;2089509;28;20022;-61
2023/12/30 02:17:28;;;;;;;;;;;;;;;15.92;60.58;99147.97;2087531;28;21400;-63
2023/12/30 02:18:28;;;;;;;;;;;;;;;15.93;60.12;99138.94;2090137;28;20414;-62
2023/12/30 02:19:29;;;;;;;;;;;;;;;15.92;60.41;99137.28;2088408;28;19925;-61
2023/12/30 02:20:33;;;;;;;;;;;;;;;15.89;60.45;99137.63;2087994;28;20331;-61
2023/12/30 02:21:33;;;;;;;;;;;;;;;15.90;60.50;99132.09;2088246;28;19925;-61
2023/12/30 02:22:35;;;;;;;;;;;;;;;15.91;60.36;99132.91;2083414;28;20019;-62
2023/12/30 02:23:37;;;;;;;;;;;;;;;15.92;60.35;99129.25;2085722;28;19924;-62
2023/12/30 02:24:39;;;;;;;;;;;;;;;15.92;60.33;99123.91;2090088;28;19928;-62
2023/12/30 02:25:39;;;;;;;;;;;;;;;15.92;60.37;99129.25;2085346;28;19931;-62
2023/12/30 02:26:43;;;;;;;;;;;;;;;15.93;60.37;99128.22;2089885;28;20224;-63
2023/12/30 02:27:44;;;;;;;;;;;;;;;15.89;60.32;99127.75;2088098;28;19940;-62
2023/12/30 02:28:45;;;;;;;;;;;;;;;15.87;60.43;99127.09;2088919;28;20499;-62
2023/12/30 02:29:46;;;;;;;;;;;;;;;15.86;60.50;99130.78;2082180;28;20068;-61
2023/12/30 02:30:48;;;;;;;;;;;;;;;15.88;60.36;99128.78;2087741;28;20388;-62
2023/12/30 02:31:48;;;;;;;;;;;;;;;15.84;60.46;99125.59;2088087;28;20369;-63
2023/12/30 02:32:50;;;;;;;;;;;;;;;15.86;60.47;99130.78;2078160;28;20711;-61
2023/12/30 02:33:50;;;;;;;;;;;;;;;15.84;60.52;99130.13;2086830;28;19925;-62
2023/12/30 02:34:52;;;;;;;;;;;;;;;15.84;60.41;99130.94;2086352;28;20403;-62
2023/12/30 02:35:53;;;;;;;;;;;;;;;15.83;60.56;99126.63;2087482;28;20745;-62
2023/12/30 02:36:53;;;;;;;;;;;;;;;15.87;60.42;99124.41;2088185;28;20015;-61
2023/12/30 02:37:55;;;;;;;;;;;;;;;15.88;60.41;99119.88;2088504;28;19936;-62
2023/12/30 02:38:57;;;;;;;;;;;;;;;15.83;60.50;99118.59;2088735;28;19932;-62
2023/12/30 02:39:57;;;;;;;;;;;;;;;15.84;60.52;99122.09;2085126;28;19968;-62
2023/12/30 02:40:59;;;;;;;;;;;;;;;15.84;60.43;99117.56;2084841;28;19952;-62
2023/12/30 02:42:00;;;;;;;;;;;;;;;15.86;60.15;99117.41;2087814;28;19928;-62
2023/12/30 02:43:01;;;;;;;;;;;;;;;15.85;60.43;99115.72;2086625;28;19968;-62
2023/12/30 02:44:02;;;;;;;;;;;;;;;15.82;60.49;99110.72;2089494;28;19928;-62
2023/12/30 02:45:04;;;;;;;;;;;;;;;15.83;60.36;99113.22;2088319;28;19964;-62
2023/12/30 02:46:05;;;;;;;;;;;;;;;15.85;60.38;99113.91;2088043;28;19928;-62
2023/12/30 02:47:07;;;;;;;;;;;;;;;15.81;60.24;99107.22;2088706;28;20458;-63
2023/12/30 02:48:07;;;;;;;;;;;;;;;15.82;60.41;99108.91;2083908;28;19932;-63
2023/12/30 02:49:08;;;;;;;;;;;;;;;15.81;60.48;99109.91;2088095;28;19972;-62
2023/12/30 02:50:10;;;;;;;;;;;;;;;15.81;60.39;99107.22;2087819;28;19929;-61
2023/12/30 02:51:13;;;;;;;;;;;;;;;15.80;60.52;99102.88;2088082;28;20319;-62
2023/12/30 02:52:15;;;;;;;;;;;;;;;15.81;60.44;99103.72;2087651;28;19932;-63
2023/12/30 02:53:16;;;;;;;;;;;;;;;15.80;60.53;99102.88;2088392;28;19933;-62
2023/12/30 02:54:19;;;;;;;;;;;;;;;15.81;60.42;99093.84;2086717;28;20374;-62
2023/12/30 02:55:19;;;;;;;;;;;;;;;15.82;60.41;99100.88;2088065;28;19933;-63
2023/12/30 02:56:20;;;;;;;;;;;;;;;15.82;60.39;99103.56;2088754;28;20373;-62
2023/12/30 02:57:23;;;;;;;;;;;;;;;15.80;60.44;99107.41;2084372;28;19994;-63
2023/12/30 02:58:23;;;;;;;;;;;;;;;15.78;60.51;99104.06;2088076;28;19925;-62
2023/12/30 02:59:25;;;;;;;;;;;;;;;15.78;60.33;99112.91;2088389;28;20805;-62
2023/12/30 03:00:25;;;;;;;;;;;;;;;15.79;60.49;99097.69;2087844;28;20441;-61
2023/12/30 03:01:27;;;;;;;;;;;;;;;15.78;60.47;99101.41;2087576;28;19925;-63
2023/12/30 03:02:29;;;;;;;;;;;;;;;15.78;60.56;99101.41;2090023;28;19984;-62
2023/12/30 03:03:29;;;;;;;;;;;;;;;15.76;60.54;99101.56;2087961;28;19935;-62
2023/12/30 03:04:30;;;;;;;;;;;;;;;15.76;60.44;99101.56;2088095;28;19964;-61
2023/12/30 03:05:32;;;;;;;;;;;;;;;15.77;60.44;99097.88;2084191;28;20062;-63
2023/12/30 03:06:33;;;;;;;;;;;;;;;15.74;60.47;99100.06;2086856;28;20015;-62
2023/12/30 03:07:36;;;;;;;;;;;;;;;15.77;60.40;99099.75;2087915;28;19933;-63
2023/12/30 03:08:37;;;;;;;;;;;;;;;15.77;60.44;99103.25;2089184;28;20463;-62
2023/12/30 03:09:40;;;;;;;;;;;;;;;15.76;60.34;99101.56;2084256;28;19970;-62
2023/12/30 03:10:40;;;;;;;;;;;;;;;15.74;60.52;99098.25;2088202;28;19929;-62
2023/12/30 03:11:43;;;;;;;;;;;;;;;15.76;60.39;99098.88;2084858;28;19986;-62
2023/12/30 03:12:43;;;;;;;;;;;;;;;15.75;60.47;99096.41;2089101;28;20015;-62
2023/12/30 03:13:45;;;;;;;;;;;;;;;15.75;60.27;99094.56;2087715;28;19933;-63
2023/12/30 03:14:46;;;;;;;;;;;;;;;15.74;60.45;99100.06;2087679;28;19936;-63
2023/12/30 03:15:47;;;;;;;;;;;;;;;15.74;60.47;99100.91;2086382;28;20003;-62
2023/12/30 03:16:48;;;;;;;;;;;;;;;15.76;60.36;99095.38;2087148;28;19929;-63
2023/12/30 03:17:49;;;;;;;;;;;;;;;15.73;60.49;99101.91;2085723;28;20654;-63
2023/12/30 03:18:50;;;;;;;;;;;;;;;15.74;60.48;99100.91;2088417;28;19928;-62
2023/12/30 03:19:52;;;;;;;;;;;;;;;15.75;60.36;99105.25;2086651;28;20438;-62
2023/12/30 03:20:52;;;;;;;;;;;;;;;15.74;60.37;99103.59;2087775;28;19924;-61
2023/12/30 03:21:54;;;;;;;;;;;;;;;15.69;60.50;99102.44;2087869;28;19928;-62
2023/12/30 03:22:55;;;;;;;;;;;;;;;15.71;60.47;99103.94;2087762;28;19968;-62
2023/12/30 03:23:56;;;;;;;;;;;;;;;15.73;60.40;99104.56;2085386;28;19935;-61
2023/12/30 03:24:58;;;;;;;;;;;;;;;15.69;60.56;99111.28;2089284;28;19933;-63
2023/12/30 03:25:59;;;;;;;;;;;;;;;15.69;60.54;99108.63;2085210;28;20391;-61
2023/12/30 03:27:00;;;;;;;;;;;;;;;15.68;60.52;99106.94;2086221;28;19928;-62
2023/12/30 03:28:01;;;;;;;;;;;;;;;15.66;60.39;99106.25;2090793;28;19971;-62
2023/12/30 03:29:03;;;;;;;;;;;;;;;15.68;60.54;99106.06;2091918;28;19928;-61
2023/12/30 03:30:04;;;;;;;;;;;;;;;15.68;60.65;99112.28;2090481;28;19931;-63
2023/12/30 03:31:06;;;;;;;;;;;;;;;15.66;60.58;99106.25;2090022;28;19936;-62
2023/12/30 03:32:08;;;;;;;;;;;;;;;15.66;60.58;99100.91;2089349;28;20224;-62
2023/12/30 03:33:08;;;;;;;;;;;;;;;15.69;60.50;99099.78;2087761;28;19932;-61
2023/12/30 03:34:10;;;;;;;;;;;;;;;15.65;60.55;99101.91;2090968;28;20030;-61
2023/12/30 03:35:11;;;;;;;;;;;;;;;15.67;60.49;99099.91;2090432;28;20371;-62
2023/12/30 03:36:13;;;;;;;;;;;;;;;15.67;60.45;99099.06;2090399;28;19928;-61
2023/12/30 03:37:13;;;;;;;;;;;;;;;15.67;60.47;99096.41;2087632;28;20351;-61
2023/12/30 03:38:15;;;;;;;;;;;;;;;15.65;60.63;99096.56;2089757;28;20418;-62
2023/12/30 03:39:17;;;;;;;;;;;;;;;15.66;60.47;99095.56;2091128;28;19933;-62
2023/12/30 03:40:19;;;;;;;;;;;;;;;15.63;60.57;99095.91;2091385;28;20513;-62
2023/12/30 03:41:20;;;;;;;;;;;;;;;15.66;60.50;99090.22;2091373;28;19932;-63
2023/12/30 03:42:21;;;;;;;;;;;;;;;15.67;60.37;99099.06;2089713;28;19936;-62
2023/12/30 03:43:21;;;;;;;;;;;;;;;15.65;60.50;99092.03;2090948;28;20502;-61
2023/12/30 03:44:23;;;;;;;;;;;;;;;15.64;60.52;99093.06;2090259;28;20015;-62
2023/12/30 03:45:24;;;;;;;;;;;;;;;15.63;60.51;99085.22;2088688;28;19928;-63
2023/12/30 03:46:24;;;;;;;;;;;;;;;15.64;60.57;99081.53;2086923;28;20284;-63
2023/12/30 03:47:26;;;;;;;;;;;;;;;15.64;60.45;99082.34;2090218;28;19959;-63
2023/12/30 03:48:26;;;;;;;;;;;;;;;15.65;60.58;99083.19;2092460;28;19924;-63
2023/12/30 03:49:28;;;;;;;;;;;;;;;15.62;60.68;99084.38;2089718;28;20019;-62
2023/12/30 03:50:29;;;;;;;;;;;;;;;15.64;60.52;99090.38;2092509;28;19924;-62
2023/12/30 03:51:30;;;;;;;;;;;;;;;15.65;60.46;99089.34;2087448;28;21316;-63
2023/12/30 03:52:31;;;;;;;;;;;;;;;15.65;60.47;99089.34;2089907;28;19959;-61
2023/12/30 03:53:32;;;;;;;;;;;;;;;15.69;60.36;99087.22;2092121;28;20339;-63
2023/12/30 03:54:33;;;;;;;;;;;;;;;15.69;60.39;99084.56;2089524;28;19928;-62
2023/12/30 03:55:36;;;;;;;;;;;;;;;15.68;60.45;99090.03;2086485;28;20363;-63
2023/12/30 03:56:38;;;;;;;;;;;;;;;15.67;60.38;99094.56;2089794;28;20292;-63
2023/12/30 03:57:39;;;;;;;;;;;;;;;15.67;60.42;99085.69;2088433;28;19971;-62
2023/12/30 03:58:40;;;;;;;;;;;;;;;15.68;60.35;99084.69;2084100;28;19936;-60
2023/12/30 03:59:42;;;;;;;;;;;;;;;15.67;60.38;99086.53;2088879;28;19974;-61
2023/12/30 04:00:42;;;;;;;;;;;;;;;15.68;60.39;99088.22;2088882;28;19929;-63
2023/12/30 04:01:44;;;;;;;;;;;;;;;15.65;60.46;99085.84;2086213;28;20036;-62
2023/12/30 04:02:47;;;;;;;;;;;;;;;15.65;60.40;99077.84;2088006;28;20640;-63
2023/12/30 04:03:48;;;;;;;;;;;;;;;15.63;60.48;99077.19;2089219;28;19943;-62
2023/12/30 04:04:49;;;;;;;;;;;;;;;15.66;60.38;99079.53;2092000;28;19936;-63
2023/12/30 04:05:50;;;;;;;;;;;;;;;15.65;60.52;99073.31;2088716;28;19933;-61
2023/12/30 04:06:51;;;;;;;;;;;;;;;15.67;60.38;99075.84;2087070;28;19963;-62
2023/12/30 04:07:52;;;;;;;;;;;;;;;15.65;60.39;99073.31;2090114;28;20621;-63
2023/12/30 04:08:53;;;;;;;;;;;;;;;15.68;60.34;99074.84;2087661;28;19961;-61
2023/12/30 04:09:55;;;;;;;;;;;;;;;15.68;60.26;99074.84;2090264;28;19928;-61
2023/12/30 04:10:57;;;;;;;;;;;;;;;15.67;60.34;99080.34;2083023;28;19925;-62
2023/12/30 04:11:58;;;;;;;;;;;;;;;15.65;60.45;99076.00;2088284;28;19975;-61
2023/12/30 04:12:59;;;;;;;;;;;;;;;15.64;60.44;99074.34;2088741;28;20838;-61
2023/12/30 04:14:00;;;;;;;;;;;;;;;15.64;60.44;99081.53;2088900;28;19924;-62
2023/12/30 04:15:01;;;;;;;;;;;;;;;15.65;60.21;99075.16;2086402;28;19932;-62
2023/12/30 04:16:03;;;;;;;;;;;;;;;15.66;60.34;99074.19;2088161;28;19991;-63
2023/12/30 04:17:03;;;;;;;;;;;;;;;15.66;60.39;99068.81;2088369;28;20135;-62
2023/12/30 04:18:05;;;;;;;;;;;;;;;15.66;60.32;99068.81;2092300;28;19972;-63
2023/12/30 04:19:06;;;;;;;;;;;;;;;15.67;60.21;99069.66;2090900;28;20021;-62
2023/12/30 04:20:08;;;;;;;;;;;;;;;15.65;60.32;99070.63;2088678;28;19929;-62
2023/12/30 04:21:08;;;;;;;;;;;;;;;15.65;60.39;99072.50;2087690;28;19936;-61
2023/12/30 04:22:10;;;;;;;;;;;;;;;15.64;60.42;99068.16;2088228;28;19956;-62
2023/12/30 04:23:11;;;;;;;;;;;;;;;15.64;60.29;99074.34;2089681;28;19932;-63
2023/12/30 04:24:12;;;;;;;;;;;;;;;15.65;60.38;99061.78;2092531;28;19975;-63
2023/12/30 04:25:13;;;;;;;;;;;;;;;15.64;60.36;99070.84;2088895;28;20311;-62
2023/12/30 04:26:16;;;;;;;;;;;;;;;15.64;60.43;99071.66;2087693;28;19976;-62
2023/12/30 04:27:17;;;;;;;;;;;;;;;15.66;60.33;99066.16;2091724;28;19932;-62
2023/12/30 04:28:18;;;;;;;;;;;;;;;15.64;60.36;99068.97;2090496;28;19960;-63
2023/12/30 04:29:19;;;;;;;;;;;;;;;15.65;60.34;99072.50;2089949;28;19944;-62
2023/12/30 04:30:20;;;;;;;;;;;;;;;15.64;60.30;99073.50;2089300;28;19964;-63
2023/12/30 04:31:21;;;;;;;;;;;;;;;15.62;60.45;99068.31;2092041;28;19940;-63
2023/12/30 04:32:24;;;;;;;;;;;;;;;15.62;60.38;99067.50;2089615;28;20714;-63
2023/12/30 04:33:24;;;;;;;;;;;;;;;15.63;60.47;99074.53;2090599;28;19977;-62
2023/12/30 04:34:26;;;;;;;;;;;;;;;15.59;60.51;99076.69;2091493;28;20387;-62
2023/12/30 04:35:27;;;;;;;;;;;;;;;15.60;60.57;99075.69;2089371;28;20303;-62
2023/12/30 04:36:28;;;;;;;;;;;;;;;15.60;60.39;99074.84;2088666;28;19968;-63
2023/12/30 04:37:29;;;;;;;;;;;;;;;15.59;60.59;99082.03;2088327;28;19925;-61
2023/12/30 04:38:30;;;;;;;;;;;;;;;15.59;60.53;99076.69;2088961;28;20363;-61
2023/12/30 04:39:31;;;;;;;;;;;;;;;15.60;60.42;99081.06;2087210;28;19928;-63
2023/12/30 04:40:33;;;;;;;;;;;;;;;15.60;60.45;99080.19;2090332;28;20276;-61
2023/12/30 04:41:35;;;;;;;;;;;;;;;15.59;60.37;99084.72;2088711;28;21198;-63
2023/12/30 04:42:37;;;;;;;;;;;;;;;15.59;60.38;99083.88;2089434;28;20368;-63
2023/12/30 04:43:37;;;;;;;;;;;;;;;15.59;60.44;99082.03;2088834;28;19939;-63
2023/12/30 04:44:38;;;;;;;;;;;;;;;15.58;60.41;99083.06;2090824;28;19955;-63
2023/12/30 04:45:40;;;;;;;;;;;;;;;15.59;60.43;99083.88;2090818;28;20011;-61
2023/12/30 04:46:40;;;;;;;;;;;;;;;15.59;60.45;99089.22;2091366;28;19925;-61
2023/12/30 04:47:42;;;;;;;;;;;;;;;15.59;60.46;99086.56;2089749;28;19962;-63
2023/12/30 04:48:42;;;;;;;;;;;;;;;15.58;60.50;99096.44;2090770;28;19925;-63
2023/12/30 04:49:43;;;;;;;;;;;;;;;15.58;60.50;99092.91;2087168;28;19964;-61
2023/12/30 04:50:45;;;;;;;;;;;;;;;15.58;60.51;99098.28;2090419;28;19932;-62
2023/12/30 04:51:45;;;;;;;;;;;;;;;15.58;60.43;99104.44;2090634;28;19924;-61
2023/12/30 04:52:47;;;;;;;;;;;;;;;15.59;60.36;99102.59;2089837;28;20020;-62
2023/12/30 04:53:47;;;;;;;;;;;;;;;15.57;60.48;99102.78;2090461;28;19928;-61
2023/12/30 04:54:49;;;;;;;;;;;;;;;15.58;60.42;99104.44;2089928;28;20002;-62
2023/12/30 04:55:50;;;;;;;;;;;;;;;15.59;60.43;99107.94;2089095;28;19933;-63
2023/12/30 04:56:53;;;;;;;;;;;;;;;15.57;60.31;99107.28;2091117;28;19989;-62
2023/12/30 04:57:53;;;;;;;;;;;;;;;15.54;60.57;99108.44;2089267;28;20387;-62
2023/12/30 04:58:55;;;;;;;;;;;;;;;15.57;60.43;99109.94;2090240;28;19972;-61
2023/12/30 04:59:55;;;;;;;;;;;;;;;15.52;60.58;99115.84;2087825;28;20391;-61
2023/12/30 05:00:56;;;;;;;;;;;;;;;15.56;60.55;99116.31;2090824;28;19964;-62
2023/12/30 05:01:58;;;;;;;;;;;;;;;15.53;60.56;99117.50;2089529;28;19924;-62
2023/12/30 05:02:58;;;;;;;;;;;;;;;15.53;60.66;99122.00;2090633;28;19924;-62
2023/12/30 05:04:00;;;;;;;;;;;;;;;15.53;60.61;99119.34;2089574;28;20015;-61
2023/12/30 05:05:01;;;;;;;;;;;;;;;15.54;60.56;99121.00;2088527;28;19932;-60
2023/12/30 05:06:03;;;;;;;;;;;;;;;15.56;60.50;99124.34;2090638;28;20023;-63
2023/12/30 05:07:04;;;;;;;;;;;;;;;15.57;60.44;99128.66;2092010;28;20587;-62
2023/12/30 05:08:05;;;;;;;;;;;;;;;15.55;60.56;99128.84;2089314;28;19932;-63
2023/12/30 05:09:06;;;;;;;;;;;;;;;15.58;60.32;99135.69;2090494;28;20039;-62
2023/12/30 05:10:09;;;;;;;;;;;;;;;15.54;60.46;99131.69;2090225;28;20419;-61
2023/12/30 05:11:10;;;;;;;;;;;;;;;15.55;60.48;99133.38;2088190;28;19929;-63
2023/12/30 05:12:13;;;;;;;;;;;;;;;15.55;60.40;99133.38;2089400;28;19934;-62
2023/12/30 05:13:13;;;;;;;;;;;;;;;15.53;60.43;99138.06;2090711;28;19928;-63
2023/12/30 05:14:15;;;;;;;;;;;;;;;15.53;60.49;99132.69;2089655;28;19980;-62
2023/12/30 05:15:16;;;;;;;;;;;;;;;15.56;60.43;99130.50;2090478;28;19940;-62
2023/12/30 05:16:18;;;;;;;;;;;;;;;15.56;60.34;99132.34;2085715;28;19975;-61
2023/12/30 05:17:19;;;;;;;;;;;;;;;15.55;60.38;99136.03;2088622;28;19933;-62
2023/12/30 05:18:21;;;;;;;;;;;;;;;15.53;60.46;99138.88;2087571;28;20387;-63
2023/12/30 05:19:21;;;;;;;;;;;;;;;15.53;60.48;99136.19;2089754;28;20339;-62